Weather at Washington Executive Hyde Field

Public forecast

Using degrees Fahrenheit for public forecast. Weather courtesy of forecast.io.

Closest aviation weather report (METAR) to Washington Executive Hyde Field

Closest report is Joint Base Andrews, 4.9 nm (9.0 km) NE. Retrieved 2021/01/26 11:29 UTC (0 seconds ago):

KADW 261129Z COR 06003KT 4SM -FZDZ BR OVC002 00/00 A2994 RMK AO2A VIS 2 3/4 RWY19L FZDZB16 SLP148 COR 1138

Closest aviation forecast (TAF) to Washington Executive Hyde Field

Closest forecast is Joint Base Andrews, 4.9 nm (9.0 km) NE. Retrieved 2021/01/26 09:07 UTC (2 hours ago):

TAF KADW 260900Z 2609/2715 09010KT 4800 -FZDZ BR OVC002 660001 QNH2990INS BECMG 2612/2613 09005KT 3200 -RA BR OVC002 QNH2984INS BECMG 2616/2617 VRB03KT 4800 -DZ BR OVC004 QNH2980INS BECMG 2705/2706 26003KT 6000 BR SCT002 QNH2988INS BECMG 2708/2709 29003KT 3200 BR BKN002 BKN050 QNH2992INS BECMG 2711/2712 31008KT 9999 NSW FEW005 BKN050 QNH2998INS TX02/2621Z TNM01/2609Z